x

Ne Bahamas - 350 Nm Ene Of Nassau, Bahamas (41047) Wave Buoy

8:50pm - Sat 23rd Jul 2016 All times are UTC.

  • Sig Wave height 3.3ft
  • Swell Direction
  • Peak Period 8s
  • Average Period 6s
  • Wind
    2mph, 4mph gusts
  • Sea Temp 86°f
  • Air Temp 84°f
  • Sea Pressure 1016.3mb

More Historic Weather Station data

Upgrade to MSW Pro to gain access to the past 30 days of data for over 8000 Wavebouys and Weather Stations around the globe.

Join Pro

Comparision Forecast

View Surf forecast
   
Sat 07/23 8:50pm 3.5ft 8s 6s 2 4 mph 1016.3mb 86f 84f
8:40pm  -   -   -  4 7 mph 1016.3mb 85f 84f
8:30pm  -   -   -  2 4 mph 1016.3mb 85f 84f
8:20pm  -   -   -  2 4 mph 1016.3mb 85f 84f
8:10pm  -   -   -  2 4 mph 1016.1mb 85f 84f
8:00pm  -   -   -  4 7 mph 1016.3mb 85f 83f
7:50pm 3.5ft 8s 6s 2 4 mph 1016.3mb 85f 83f
7:40pm  -   -   -  2 7 mph 1016.3mb 85f 83f
7:30pm  -   -   -  4 7 mph 1016.5mb 85f 83f
7:20pm  -   -   -  4
mph
1016.5mb 85f 83f
7:10pm  -   -   -  2 7 mph 1016.5mb 85f 83f
7:00pm  -   -   -  2 4 mph 1016.5mb 85f 83f
6:50pm 3.5ft 9s 6s 4 7 mph 1016.5mb 85f 83f
6:40pm  -   -   -  4 7 mph 1016.6mb 85f 83f
6:30pm  -   -   -  7 9 mph 1016.8mb 85f 82f
6:20pm  -   -   -  7 9 mph 1016.9mb 85f 82f
6:10pm  -   -   -  7 9 mph 1016.9mb 85f 82f
6:00pm  -   -   -  7 9 mph 1017mb 85f 82f
5:50pm 3.5ft 9s 6s 9 11 mph 1017mb 85f 82f
5:40pm 3.5ft  -  6s 7 9 mph 1017.1mb 85f 82f
5:30pm  -   -   -  7 9 mph 1017.1mb 85f 82f
5:20pm  -   -   -  9 11 mph 1017.3mb 85f 82f
5:10pm  -   -   -  9 11 mph 1017.5mb 85f 81f
5:00pm  -   -   -  9 11 mph 1017.4mb 85f 81f
4:50pm 4ft 8s 6s 9 11 mph 1017.4mb 85f 81f
4:40pm  -   -   -  9 13 mph 1017.5mb 85f 81f
4:30pm  -   -   -  9 13 mph 1017.5mb 85f 81f
4:20pm  -   -   -  9 13 mph 1017.5mb 85f 81f
4:10pm  -   -   -  9 11 mph 1017.5mb 85f 80f
4:00pm  -   -   -  11 13 mph 1017.3mb 85f 80f
3:50pm 3.5ft 6s  -  11 13 mph 1017.1mb 85f 80f
3:40pm  -   -   -  9 13 mph 1017.3mb 85f 81f
3:30pm  -   -   -  9 13 mph 1017.1mb 85f 80f
3:20pm  -   -   -  9 11 mph 1017.4mb 85f 81f
3:10pm  -   -   -  9 11 mph 1017.5mb 85f 81f
3:00pm  -   -   -  7 11 mph 1017.4mb 85f 80f
2:50pm 4ft 8s 6s 9 11 mph 1017.1mb 85f 80f
2:40pm  -   -   -  7 9 mph 1017.1mb 85f 80f
2:30pm  -   -   -  9 11 mph 1017mb 85f 80f
2:20pm  -   -   -  9 11 mph 1017mb 85f 80f
2:10pm  -   -   -  11 13 mph 1016.9mb 85f 80f
2:00pm  -   -   -  11 13 mph 1016.9mb 85f 80f
1:50pm 4.5ft 9s 6s 11 13 mph 1016.9mb 85f 80f
1:40pm  -   -   -  9 11 mph 1016.9mb 85f 80f
1:30pm  -   -   -  9 13 mph 1016.6mb 85f 80f
1:20pm  -   -   -  11 13 mph 1016.5mb 85f 80f
1:10pm  -   -   -  11 13 mph 1016.4mb 85f 80f
1:00pm  -   -   -  11 13 mph 1016.4mb 85f 80f
12:50pm 4.5ft 9s 6s 11 13 mph 1016.4mb 85f 80f
12:40pm 4.5ft 9s  -   -  mph - 85f -
12:30pm  -   -   -  9 11 mph 1016.6mb 85f 80f
12:20pm  -   -   -  7 11 mph 1016.8mb 85f 80f
12:10pm  -   -   -  7 9 mph 1016.9mb 85f 80f
12:00pm  -   -   -  7 9 mph 1016.9mb 85f 79f
11:50am 4ft 8s 6s 7 11 mph 1017mb 85f 79f
11:40am  -   -   -  9 11 mph 1016.9mb 85f 79f
11:30am  -   -   -  9 11 mph 1016.9mb 85f 79f
11:20am  -   -   -  9 13 mph 1016.9mb 85f 79f
11:10am  -   -   -  11 13 mph 1017mb 85f 78f
11:00am  -   -   -  13 22 mph 1017mb 85f 78f
10:50am 4ft 9s 6s 11 25 mph 1016.9mb 85f 80f
10:40am  -   -   -  4 7 mph 1016.8mb 85f 80f
10:30am  -   -   -  4 7 mph 1016.6mb 85f 80f
10:20am  -   -   -  2 4 mph 1016.8mb 85f 79f
10:10am  -   -   -   -  2 mph 1016.6mb 85f 79f
10:00am  -   -   -  2 7 mph 1016.5mb 85f 79f
9:50am 3.5ft 9s 6s 4 9 mph 1016.4mb 85f 80f
9:40am  -   -   -  4 7 mph 1016.3mb 85f 79f
9:30am  -   -   -  7 11 mph 1016.4mb 85f 79f
9:20am  -   -   -  9 11 mph 1016.4mb 85f 80f
9:10am  -   -   -  7
mph
1016.1mb 85f 80f
9:00am  -   -   -  4 9 mph 1016mb 85f 80f
8:50am 3.5ft 9s 6s 4 9 mph 1016mb - 81f
8:40am  -   -   -  4 7 mph 1016.1mb 85f 82f
8:30am  -   -   -  4 7 mph 1016mb 85f 82f
8:20am  -   -   -  4 7 mph 1016.1mb 85f 82f
8:10am  -   -   -  4 7 mph 1016.3mb 85f 81f
8:00am  -   -   -  2 7 mph 1016.1mb 85f 81f
7:50am 3.5ft 9s 6s  -  2 mph 1016.1mb 85f 81f
7:40am  -   -   -  2 4 mph 1016.3mb 85f 81f
7:30am  -   -   -  2 4 mph 1016.4mb 85f 81f
7:20am  -   -   -  4 7 mph 1016.4mb 85f 81f
7:10am  -   -   -  7 9 mph 1016.4mb 85f 81f
7:00am  -   -   -  4 7 mph 1016.5mb 85f 81f
6:50am 3.5ft 8s 6s 2 4 mph 1016.6mb 85f 81f
6:40am  -   -   -  2 4 mph 1016.8mb 85f 81f
6:30am  -   -   -  2 7 mph 1016.6mb 85f 81f
6:20am  -   -   -  4 9 mph 1016.6mb 85f 81f
6:10am  -   -   -  7 9 mph 1016.9mb 85f 81f
6:00am  -   -   -  4 7 mph 1016.8mb 85f 81f
5:50am 3.5ft 9s 5s 7 9 mph 1016.8mb 85f 81f
5:40am  -   -   -  7 9 mph 1016.6mb 85f 81f
5:30am  -   -   -  7 11 mph 1016.5mb 85f 81f
5:20am  -   -   -  9 11 mph 1016.6mb 85f 82f
5:10am  -   -   -  7 11 mph 1016.6mb 85f 82f
5:00am  -   -   -  9 13 mph 1016.6mb 85f 82f
4:50am 3.5ft 9s 5s 11 13 mph 1016.5mb 85f 82f
4:40am  -   -   -  9 11 mph 1016.4mb 85f 82f
4:30am  -   -   -  9 11 mph 1016.5mb 85f 82f
4:20am  -   -   -  7 11 mph 1016.3mb 85f 82f
4:10am  -   -   -  7 11 mph 1016.5mb 85f 82f
4:00am  -   -   -  9 13 mph 1016.4mb 85f 82f
3:50am 3.5ft 8s 5s 11 13 mph 1016.4mb 85f 82f
3:40am  -   -   -  11 13 mph 1016.3mb 85f 82f
3:30am  -   -   -  11 13 mph 1016.1mb 85f 82f
3:20am  -   -   -  13 16 mph 1016.3mb 85f 82f
3:10am  -   -   -  16 18 mph 1016.4mb 85f 82f
3:00am  -   -   -  18 22 mph 1016.5mb 85f 82f
2:50am 3.5ft  -  5s 20 22 mph 1016.6mb - 81f
2:40am  -   -   -  22 27 mph 1016.6mb 85f 81f
2:30am  -   -   -  20 25 mph 1016.5mb 85f 81f
2:20am  -   -   -  18 22 mph 1016.5mb 85f 81f
2:10am  -   -   -  16 20 mph 1016.1mb 85f 81f
2:00am  -   -   -  16 18 mph 1016.1mb 85f 81f
1:50am 3.5ft 8s 6s 16 18 mph 1016.3mb 85f 81f
1:40am  -   -   -  16 18 mph 1016.5mb 85f 81f
1:30am  -   -   -  13 16 mph 1016.6mb 85f 80f
1:20am  -   -   -  13 16 mph 1016.8mb 85f 80f
1:10am  -   -   -  13 16 mph 1016.9mb 85f 80f
1:00am  -   -   -  16 18 mph 1016.8mb 85f 80f
12:50am 3.5ft 8s 6s 13 18 mph 1016.4mb 85f 79f
12:40am  -   -   -  13 16 mph 1016.5mb 85f 79f
12:30am  -   -   -  9 13 mph 1016.6mb 85f 79f
12:20am  -   -   -  7 9 mph 1016.8mb 85f 79f
12:10am  -   -   -  7 11 mph 1016.8mb 85f 79f
12:00am  -   -   -  9 11 mph 1017.4mb 85f 79f
Fri 07/22 11:50pm 4.5ft 9s 6s 7 9 mph 1017.5mb 85f 79f
11:40pm  -   -   -  4 7 mph 1017.5mb 85f 79f
11:30pm  -   -   -  4 7 mph 1017.5mb 85f 79f
11:20pm  -   -   -  4 9 mph 1017.6mb 85f 79f
11:10pm  -   -   -  4 9 mph 1017.6mb 85f 79f
11:00pm  -   -   -  7 11 mph 1017.5mb 85f 79f
10:50pm 4ft 8s 6s 7 11 mph 1017.9mb 85f 79f
10:40pm  -   -   -  9 13 mph 1018.1mb 85f 79f
10:30pm  -   -   -  9 11 mph 1018mb 85f 79f
10:20pm  -   -   -  9 11 mph 1017.9mb 85f 79f
10:10pm  -   -   -  9 11 mph 1018mb 85f 80f
10:00pm  -   -   -  7 11 mph 1018mb 85f 80f
9:50pm 4ft 9s 5s 4 9 mph 1018mb 85f 80f
9:40pm  -   -   -  2 4 mph 1017.8mb 85f 80f
9:30pm  -   -   -  7 9 mph 1018mb 85f 80f
9:20pm  -   -   -  7 9 mph 1018.3mb 85f 80f
9:10pm  -   -   -  7 9 mph 1018.3mb 85f 80f
9:00pm  -   -   -  9 11 mph 1018.1mb 85f 80f
8:50pm 4.5ft 8s 6s 11 16 mph 1017.8mb 85f 80f
8:40pm 4.5ft  -  6s 13 18 mph 1017.9mb 85f 80f
8:30pm  -   -   -  4 9 mph 1017.8mb 85f 79f
8:20pm  -   -   -  7 11 mph 1017.6mb 85f 78f
8:10pm  -   -   -  7 9 mph 1018mb 85f 78f
8:00pm  -   -   -  11 16 mph 1018.3mb 85f 79f
7:50pm 4ft 9s 6s 9 13 mph 1018.3mb 85f 79f
7:40pm  -   -   -  11 16 mph 1018.5mb 85f 79f
7:30pm  -   -   -  13 16 mph 1018.5mb 85f 79f
7:20pm  -   -   -  7 11 mph 1018.5mb 85f 81f
7:10pm  -   -   -  7 11 mph 1018.9mb 85f 79f
7:00pm  -   -   -  7 11 mph 1019mb 85f 79f
6:50pm 5ft 9s 6s 9 13 mph 1019.1mb 85f 78f
6:40pm  -   -   -  9 13 mph 1019.5mb 85f 78f
6:30pm  -   -   -  13 18 mph 1019.5mb 85f 79f
6:20pm  -   -   -  16 20 mph 1019.6mb 85f 80f
6:10pm  -   -   -  7 18 mph 1019.9mb 85f 82f
6:00pm  -   -   -  4 7 mph 1019.9mb 85f 82f
5:50pm 4.5ft 9s 6s 7 9 mph 1019.8mb 85f 82f
5:40pm  -   -   -  7 11 mph 1020mb 85f 82f
5:30pm  -   -   -  9 13 mph 1019.5mb 85f 82f
5:20pm  -   -   -  9 13 mph 1019.6mb 85f 82f
5:10pm  -   -   -  9 13 mph 1020mb 85f 82f
5:00pm  -   -   -  9 11 mph 1019.5mb 85f 82f
4:50pm 4.5ft 9s 6s 9 11 mph 1020mb 85f 82f
4:40pm  -   -   -  9 11 mph 1020.1mb 85f 82f
4:30pm  -   -   -  9 13 mph 1020mb 85f 82f
4:20pm  -   -   -  9 13 mph 1020.1mb 85f 82f
4:10pm  -   -   -  11 13 mph 1020.1mb 85f 82f
4:00pm  -   -   -  11 18 mph 1020mb 85f 82f
3:50pm 4.5ft 8s 6s 13 18 mph 1019.5mb 85f 82f
3:40pm  -   -   -  13 18 mph 1019.5mb 85f 82f
3:30pm  -   -   -  13 18 mph 1019.5mb 85f 82f
3:20pm  -   -   -  13 18 mph 1019.6mb 85f 82f
3:10pm  -   -   -  13 16 mph 1019.6mb 85f 81f
3:00pm  -   -   -  13 18 mph 1019.9mb 85f 81f
2:50pm 4.5ft 9s 6s 16 20 mph 1019.8mb 85f 81f
2:40pm  -   -   -  16 20 mph 1019.9mb 85f 81f
2:30pm  -   -   -  18 22 mph 1019.9mb 85f 81f
2:20pm  -   -   -  18 22 mph 1020.1mb 85f 81f
2:10pm  -   -   -  18 22 mph 1019.6mb 85f 81f
2:00pm  -   -   -  18 20 mph 1019.6mb 85f 82f
1:50pm 3.5ft 8s 6s 18 22 mph 1019.1mb 85f 81f
1:40pm  -   -   -  16 20 mph 1019mb 85f 82f
1:30pm  -   -   -  16 18 mph 1019mb 85f 82f
1:20pm  -   -   -  13 18 mph 1019mb 85f 82f
1:10pm  -   -   -  13 18 mph 1018.9mb 85f 82f
1:00pm  -   -   -  7 11 mph 1018.9mb 85f 82f
12:50pm 4.5ft 9s 6s 7 9 mph 1018.8mb 85f 81f
12:40pm  -   -   -  7 9 mph 1018.9mb 85f 80f
12:30pm  -   -   -  7 11 mph 1019mb 85f 80f
12:20pm  -   -   -  7 9 mph 1018.8mb 85f 80f
12:10pm  -   -   -  9 11 mph 1018.9mb 85f 79f
12:00pm  -   -   -  4 9 mph 1019mb 85f 78f
11:50am 4.5ft 9s 6s 4 7 mph 1019.1mb 85f 78f
11:40am 4.5ft  -  6s 4 9 mph 1019.3mb 85f 79f
11:30am  -   -   -  11 20 mph 1019.4mb 85f 78f
11:20am  -   -   -  20 25 mph 1018.9mb 85f 80f
11:10am  -   -   -  18 22 mph 1018.8mb 85f 81f
11:00am  -   -   -  16 20 mph 1018.5mb 85f 81f
10:50am 3.5ft 9s 6s 16 22 mph 1018.5mb 85f 82f
10:40am 3.5ft  -  6s 13 16 mph 1018.8mb 85f 82f
10:30am  -   -   -  11 16 mph 1018.5mb 85f 82f
10:20am  -   -   -  11 13 mph 1018.8mb 85f 82f
10:10am  -   -   -  9 11 mph 1018.5mb 85f 82f
10:00am  -   -   -  4 11 mph 1018.4mb 85f 82f
9:50am 3.5ft 8s 6s 7 11 mph 1018.4mb 85f 82f
9:40am  -   -   -  4 9 mph 1018mb 85f 82f
9:30am  -   -   -  4 9 mph 1017.8mb 85f 82f
9:20am  -   -   -  7 9 mph 1017.6mb 85f 81f
9:10am  -   -   -  9 11 mph 1018mb 85f 81f
9:00am  -   -   -  9 11 mph 1018.3mb 85f 82f
8:50am 4.5ft 9s 7s 11 13 mph 1018.3mb 85f 82f
8:40am  -   -   -  11 16 mph 1018.4mb 85f 82f
8:30am  -   -   -  7 11 mph 1018mb 85f 83f
8:20am  -   -   -  4 7 mph 1017.9mb 85f 83f
8:10am  -   -   -  2 4 mph 1017.8mb 85f 83f
8:00am  -   -   -  4 7 mph 1018mb 85f 83f
7:50am 3.5ft 8s 6s 4 7 mph 1018mb 85f 83f
7:40am  -   -   -  4 7 mph 1018.3mb 85f 83f
7:30am  -   -   -  4 7 mph 1018.3mb 85f 83f
7:20am  -   -   -  2 7 mph 1018mb 85f 83f
7:10am  -   -   -   -  4 mph 1018mb 85f 83f
7:00am  -   -   -  4
mph
1018.3mb 85f 83f
6:50am 4ft 9s 7s 2 4 mph 1018.4mb 85f 83f
6:40am  -   -   -   -  2 mph 1018.4mb 85f 83f
6:30am  -   -   -  2 4 mph 1018.5mb 85f 83f
6:20am  -   -   -  2 7 mph 1018.5mb 85f 83f
6:10am  -   -   -  2 4 mph 1018.5mb 85f 83f
6:00am  -   -   -  2 4 mph 1018.5mb 85f 83f
5:50am 3.5ft 9s 7s 2 4 mph 1019mb 86f 84f
5:40am 3.5ft  -  7s 2 4 mph 1019mb 85f 84f
5:30am  -   -   -  2 4 mph 1019mb 85f 84f
5:20am  -   -   -  2 4 mph 1019.4mb 85f 84f
5:10am  -   -   -  2 4 mph 1019.3mb 85f 84f
5:00am  -   -   -  2 4 mph 1019.4mb 85f 84f
4:50am 3.5ft 9s 6s 4 7 mph 1019.4mb 85f 84f
4:40am  -   -   -  4 7 mph 1019.5mb 85f 84f
4:30am  -   -   -  4 7 mph 1019.6mb 85f 84f
4:20am  -   -   -  4 7 mph 1019.6mb 86f 84f
4:10am  -   -   -  4 7 mph 1019.9mb 86f 84f
4:00am  -   -   -  4 7 mph 1019.9mb 86f 84f
3:50am 4.5ft 8s 6s 4 7 mph 1020mb 86f 84f
3:40am  -   -   -  4 7 mph 1020mb 86f 84f
3:30am  -   -   -  7 9 mph 1020mb 86f 84f
3:20am  -   -   -  7 9 mph 1020mb 86f 84f
3:10am  -   -   -  7 9 mph 1019.9mb 85f 84f
3:00am  -   -   -  7 9 mph 1019.9mb 85f 84f
2:50am 4.5ft 8s 6s 7 11 mph 1019.9mb 85f 84f
2:40am  -   -   -  7 9 mph 1020mb 85f 84f
2:30am  -   -   -  7 11 mph 1020mb 85f 84f
2:20am  -   -   -  7 9 mph 1020mb 85f 84f
2:10am  -   -   -  7 9 mph 1020mb 85f 84f
2:00am  -   -   -  4 9 mph 1019.9mb 85f 84f
1:50am 4.5ft 9s 7s 7 11 mph 1019.6mb 86f 84f
1:40am  -   -   -  7 11 mph 1019.5mb 86f 84f
1:30am  -   -   -  9 11 mph 1019.5mb 86f 84f
1:20am  -   -   -  9 11 mph 1019.4mb 86f 84f
1:10am  -   -   -  9 13 mph 1019.1mb 86f 84f
1:00am  -   -   -  9 11 mph 1019mb 86f 84f
12:50am 4.5ft 8s 6s 9 11 mph 1019mb 86f 84f
12:40am  -   -   -  7 9 mph 1018.9mb 86f 84f
12:30am  -   -   -  7 9 mph 1018.9mb 86f 84f
12:20am  -   -   -  4 9 mph 1018.8mb 86f 84f
12:10am  -   -   -  4 9 mph 1018.8mb 86f 84f
12:00am  -   -   -  4 7 mph 1018.8mb 86f 84f
Thu 07/21 11:50pm 4.5ft 9s 6s 4 7 mph 1018.6mb 86f 84f
11:40pm  -   -   -  4 7 mph 1018.5mb 86f 84f
11:30pm  -   -   -  4 7 mph 1018.5mb 86f 84f
11:20pm  -   -   -  4 7 mph 1018.6mb 86f 84f
11:10pm  -   -   -  4 9 mph 1018.5mb 86f 84f
11:00pm  -   -   -  4 9 mph 1018.5mb 86f 84f
10:50pm 5ft 9s 6s 4 7 mph 1018.8mb 86f 84f
10:40pm  -   -   -  4 9 mph 1018.8mb 86f 84f
10:30pm  -   -   -  4 7 mph 1018.5mb 86f 84f
10:20pm  -   -   -  4 7 mph 1018.8mb 86f 84f
10:10pm  -   -   -  4 9 mph 1018.8mb 86f 84f
10:00pm  -   -   -  4 9 mph 1018.8mb 86f 84f
9:50pm 4.5ft 9s 7s 4 9 mph 1018.6mb 86f 85f
9:40pm  -   -   -  4 7 mph 1018.6mb 86f 85f
9:30pm  -   -   -  4 7 mph 1018.8mb 86f 84f
9:20pm  -   -   -  4 9 mph 1018.8mb 86f 85f
9:10pm  -   -   -  4 7 mph 1019mb 86f 85f
9:00pm  -   -   -  4 9 mph 1019mb 86f 84f
8:50pm 4.5ft 9s 6s 4 9 mph 1019mb 86f 85f
8:40pm  -   -   -  4 7 mph 1019mb 86f 85f
8:30pm  -   -   -  4 7 mph 1019mb 86f 85f
8:20pm  -   -   -  4 9 mph 1019.3mb 86f 85f
8:10pm  -   -   -  4 9 mph 1019.3mb 86f 85f
8:00pm  -   -   -  7 9 mph 1019.1mb 86f 84f
7:50pm 4.5ft 9s 7s 7 11 mph 1019.4mb 86f 84f
7:40pm  -   -   -  7 11 mph 1019.3mb 86f 84f
7:30pm  -   -   -  7 9 mph 1019.3mb 86f 84f
7:20pm  -   -   -  7 11 mph 1019.1mb 86f 84f
7:10pm  -   -   -  7 11 mph 1019.3mb 86f 84f
7:00pm  -   -   -  7 11 mph 1019.5mb 86f 84f
6:50pm 5ft 9s 7s 7 11 mph 1019.6mb 86f 84f
6:40pm  -   -   -  7 11 mph 1019.8mb 86f 84f
6:30pm  -   -   -  7 9 mph 1020mb 86f 84f
6:20pm  -   -   -  7 9 mph 1020mb 86f 84f
6:10pm  -   -   -  7 9 mph 1020.1mb 86f 84f
6:00pm  -   -   -  7 9 mph 1020.1mb 86f 84f
5:50pm 4.5ft 9s 6s 7 9 mph 1020.3mb 86f 84f
5:40pm  -   -   -  7 9 mph 1020.4mb 86f 84f
5:30pm  -   -   -  7 9 mph 1020.5mb 85f 84f
5:20pm  -   -   -  7 9 mph 1020.5mb 85f 84f
5:10pm  -   -   -  4 7 mph 1020.6mb 85f 84f
5:00pm  -   -   -  4 9 mph 1020.6mb 85f 84f
4:50pm 5ft 8s 7s 7 9 mph 1020.6mb 85f 84f
4:40pm  -   -   -  7 9 mph 1020.8mb 85f 84f
4:30pm  -   -   -  7 9 mph 1020.9mb 85f 84f
4:20pm  -   -   -  7 9 mph 1021mb 85f 84f
4:10pm  -   -   -  7 11 mph 1021mb 85f 84f
4:00pm  -   -   -  7 11 mph 1021mb 85f 84f
3:50pm 5ft 9s 6s 7 9 mph 1021.1mb 85f 84f
3:40pm 5ft  -  6s 7 9 mph 1021.3mb 85f 84f
3:30pm  -   -   -  7 9 mph 1021.3mb 85f 84f
3:20pm  -   -   -  7 9 mph 1021.3mb 85f 84f
3:10pm  -   -   -  9 11 mph 1021mb 85f 84f
3:00pm  -   -   -  7 11 mph 1021mb 85f 84f
2:50pm 5ft 8s 7s 7 11 mph 1020.9mb 85f 84f
2:40pm  -   -   -  7 11 mph 1020.8mb 85f 84f
2:30pm  -   -   -  7 11 mph 1020.6mb 85f 84f
2:20pm  -   -   -  7 9 mph 1020.8mb 85f 84f
2:10pm  -   -   -  7 9 mph 1020.8mb 85f 84f
2:00pm  -   -   -  7 9 mph 1020.8mb 85f 84f
1:50pm 4.5ft 9s 7s 7 11 mph 1020.6mb 85f 84f
1:40pm  -   -   -  7 9 mph 1020.5mb 85f 84f
1:30pm  -   -   -  7 9 mph 1020.5mb 85f 84f
1:20pm  -   -   -  4 9 mph 1020.5mb 85f 84f
1:10pm  -   -   -  7 9 mph 1020.1mb 85f 84f
1:00pm  -   -   -  7 11 mph 1020mb 85f 83f
12:50pm 5ft 9s 7s 7 9 mph 1020mb 85f 83f
12:40pm  -   -   -  7 9 mph 1019.9mb 85f 83f
12:30pm  -   -   -  7 9 mph 1019.8mb 85f 83f
12:20pm  -   -   -  7 9 mph 1019.6mb 85f 83f
12:10pm  -   -   -  9 11 mph 1019.5mb 85f 83f
12:00pm  -   -   -  7 9 mph 1019.5mb 85f 83f
11:50am 5ft 9s 7s 7 11 mph 1019.5mb 85f 83f
11:40am  -   -   -  7 11 mph 1019.4mb 85f 83f
11:30am  -   -   -  7 9 mph 1019.4mb 85f 83f
11:20am  -   -   -  7 11 mph 1019.4mb 85f 83f
11:10am  -   -   -  9 11 mph 1019.4mb 85f 83f
11:00am  -   -   -  9 11 mph 1019.3mb 85f 83f
10:50am 5ft 9s 7s 9 11 mph 1019.3mb 85f 83f
10:40am 5ft  -  7s 9 11 mph 1019.1mb 85f 83f
10:30am  -   -   -  9 11 mph 1019mb 85f 83f
10:20am  -   -   -  9 11 mph 1019mb 85f 83f
10:10am  -   -   -  9 11 mph 1019mb 85f 83f
10:00am  -   -   -  9 11 mph 1019mb 85f 83f
9:50am 5ft 8s 7s 7 11 mph 1019mb 85f 83f
9:40am  -   -   -  9 11 mph 1018.9mb 85f 83f
9:30am  -   -   -  7 9 mph 1019mb 85f 83f
9:20am  -   -   -  7 9 mph 1019mb 85f 83f
9:10am  -   -   -  7 9 mph 1019.1mb 85f 83f
9:00am  -   -   -  7 11 mph 1019.1mb 85f 83f
8:50am 5ft 9s 7s 7 11 mph 1019.1mb 85f 83f
8:40am  -   -   -  7 11 mph 1019.3mb 85f 83f
8:30am  -   -   -  7 9 mph 1019.3mb 85f 83f
8:20am  -   -   -  7 9 mph 1019.3mb 85f 83f
8:10am  -   -   -  9 11 mph 1019.4mb 85f 83f
8:00am  -   -   -  9 11 mph 1019.1mb 85f 83f
7:50am 5ft 8s 7s 9 13 mph 1019.1mb 85f 83f
7:40am 5ft  -  7s 7 11 mph 1019.3mb 85f 83f
7:30am  -   -   -  9 11 mph 1019.5mb 85f 83f
7:20am  -   -   -  7 11 mph 1019.5mb 85f 83f
7:10am  -   -   -  7 9 mph 1019.6mb 85f 83f
7:00am  -   -   -  4 9 mph 1019.9mb 85f 83f
6:50am 5ft 9s 7s 2 9 mph 1020mb 85f 82f
6:40am  -   -   -  7 11 mph 1020.1mb 85f 83f
6:30am  -   -   -  7 9 mph 1020.3mb 85f 83f
6:20am  -   -   -  7 9 mph 1020.3mb 85f 83f
6:10am  -   -   -  7 9 mph 1020.1mb 85f 83f
6:00am  -   -   -  7 9 mph 1020.1mb 85f 83f
5:50am 5ft 9s 7s 7 9 mph 1020.1mb 85f 83f
5:40am  -   -   -  7 9 mph 1020.3mb 85f 83f
5:30am  -   -   -  7 9 mph 1020.4mb 85f 83f
5:20am  -   -   -  7 9 mph 1020.5mb 85f 83f
5:10am  -   -   -  7 9 mph 1020.6mb 85f 84f
5:00am  -   -   -  4 9 mph 1020.6mb 85f 84f
4:50am 5.5ft 9s 7s 4 7 mph 1020.9mb 85f 84f
4:40am 5.5ft  -  7s 4 7 mph 1021mb 85f 84f
4:30am  -   -   -  4 9 mph 1021mb 85f 84f
4:20am  -   -   -  7 9 mph 1021mb 85f 84f
4:10am  -   -   -  7 9 mph 1021mb 85f 84f
4:00am  -   -   -  7 9 mph 1021mb 85f 84f
3:50am 5ft 9s 7s 4 7 mph 1021.1mb 85f 84f
3:40am  -   -   -  4 7 mph 1021mb 85f 84f
3:30am  -   -   -  4 7 mph 1021.1mb 85f 84f
3:20am  -   -   -  7 9 mph 1021.1mb 85f 84f
3:10am  -   -   -  7 9 mph 1021.1mb 85f 84f
3:00am  -   -   -  4 7 mph 1021.4mb 85f 84f
2:50am 6ft 8s 7s 4 7 mph 1021.4mb 85f 84f
2:40am  -   -   -  4 7 mph 1021.3mb 85f 84f
2:30am  -   -   -  4 7 mph 1021.1mb 85f 84f
2:20am  -   -   -  4 7 mph 1021mb 85f 84f
2:10am  -   -   -  4 7 mph 1021mb 85f 84f
2:00am  -   -   -  7 9 mph 1020.8mb 85f 84f
1:50am 6ft 9s 7s 4 9 mph 1020.6mb - 84f
1:40am  -   -   -  7 9 mph 1020.5mb 85f 84f
1:30am  -   -   -  4 7 mph 1020.5mb 85f 84f
1:20am  -   -   -  4 9 mph 1020.4mb 85f 84f
1:10am  -   -   -  4 7 mph 1020.5mb 85f 84f
1:00am  -   -   -  4 9 mph 1020.3mb 85f 84f
12:50am 5.5ft 9s 7s 7 9 mph 1020.1mb 85f 84f
12:40am  -   -   -  4 9 mph 1020mb 85f 84f
12:30am  -   -   -  4 9 mph 1020mb 85f 84f
12:20am  -   -   -  4 9 mph 1020mb 85f 84f
12:10am  -   -   -  4 9 mph 1019.8mb 85f 84f
12:00am  -   -   -  7 9 mph 1019.6mb 85f 84f
Wed 07/20 11:50pm 6ft 9s 7s 7 9 mph 1019.6mb 85f 84f
11:40pm  -   -   -  7 9 mph 1019.6mb 85f 84f
11:30pm  -   -   -  7 9 mph 1019.5mb 85f 84f
11:20pm  -   -   -  7 9 mph 1019.5mb 85f 84f
11:10pm  -   -   -  7 9 mph 1019.6mb 85f 84f
11:00pm  -   -   -  4 7 mph 1019.8mb 85f 84f
10:50pm 5.5ft 10s 6s 4 7 mph 1019.9mb 85f 84f
10:40pm  -   -   -  2 7 mph 1019.9mb 85f 84f
10:30pm  -   -   -  4 7 mph 1019.8mb 85f 84f
10:20pm  -   -   -  7 9 mph 1019.6mb 85f 84f
10:10pm  -   -   -  7 9 mph 1019.6mb 85f 84f
10:00pm  -   -   -  7 9 mph 1019.8mb 85f 85f
9:50pm 6ft 9s 7s 7 9 mph 1019.8mb 85f 85f
9:40pm  -   -   -  7 9 mph 1019.9mb 85f 85f
9:30pm  -   -   -  7 9 mph 1019.9mb 85f 85f
9:20pm  -   -   -  4 7 mph 1019.9mb 85f 85f
9:10pm  -   -   -  7 9 mph 1019.8mb 85f 85f
9:00pm  -   -   -  7 9 mph 1019.8mb 85f 84f
8:50pm 6ft 9s 6s 7 9 mph 1019.9mb 85f 84f
8:40pm  -   -   -  7 9 mph 1019.9mb 85f 85f
8:30pm  -   -   -  7 9 mph 1019.9mb 85f 85f
8:20pm  -   -   -  7 9 mph 1020.1mb 85f 85f
8:10pm  -   -   -  7 9 mph 1020.3mb 85f 85f
8:00pm  -   -   -  7 9 mph 1020.3mb 85f 85f
7:50pm 6ft 9s 7s 7 9 mph 1020.3mb 85f 85f
7:40pm 6ft  -  7s 7 9 mph 1020mb 85f 85f
7:30pm  -   -   -  7 11 mph 1020.1mb 85f 85f
7:20pm  -   -   -  9 11 mph 1020.4mb 85f 85f
7:10pm  -   -   -  9 11 mph 1020.4mb 85f 85f
7:00pm  -   -   -  9 11 mph 1020.5mb 85f 85f
6:50pm 6.5ft 9s 7s 9 11 mph 1020.6mb 85f 85f
6:40pm  -   -   -  7 11 mph 1020.6mb 85f 85f
6:30pm  -   -   -  9 11 mph 1021mb 85f 85f
6:20pm  -   -   -  9 11 mph 1021mb 85f 85f
6:10pm  -   -   -  7 9 mph 1021mb 85f 85f
6:00pm  -   -   -  7 9 mph 1021.1mb 85f 85f
5:50pm 6ft 9s 7s 7 11 mph 1021mb 85f 85f
5:40pm 6ft  -  7s 9 11 mph 1021.3mb 85f 85f
5:30pm  -   -   -  9 13 mph 1021.1mb 85f 85f
5:20pm  -   -   -  9 13 mph 1021.3mb 85f 85f
5:10pm  -   -   -  9 11 mph 1021.3mb 85f 85f
5:00pm  -   -   -  9 11 mph 1021.4mb 85f 85f
4:50pm 6ft 8s 6s 9 11 mph 1021.5mb 85f 85f
4:40pm  -   -   -  9 11 mph 1021.5mb 85f 85f
4:30pm  -   -   -  9 11 mph 1021.5mb 85f 85f
4:20pm  -   -   -  9 13 mph 1021.5mb 85f 85f
4:10pm  -   -   -  11 13 mph 1021.5mb 85f 85f
4:00pm  -   -   -  11 13 mph 1021.5mb 85f 85f
3:50pm 5.5ft 9s 6s 9 11 mph 1021.5mb 85f 85f
3:40pm  -   -   -  11 13 mph 1021.5mb 84f 85f
3:30pm  -   -   -  11 13 mph 1021.5mb 84f 85f
3:20pm  -   -   -  11 16 mph 1021.5mb 84f 85f
3:10pm  -   -   -  11 16 mph 1021.5mb 84f 84f
3:00pm  -   -   -  13 16 mph 1021.5mb 84f 84f
2:50pm 6ft 8s 6s 13 16 mph 1021.5mb 84f 84f
2:40pm  -   -   -  13 18 mph 1021.5mb 84f 84f
2:30pm  -   -   -  13 16 mph 1021.1mb 84f 84f
2:20pm  -   -   -  13 18 mph 1021mb 84f 84f
2:10pm  -   -   -  13 18 mph 1021mb 84f 84f
2:00pm  -   -   -  11 16 mph 1021mb 84f 84f
1:50pm 6ft 10s 6s 13 16 mph 1021.1mb 84f 84f
1:40pm  -   -   -  13 16 mph 1021.3mb 84f 84f
1:30pm  -   -   -  13 16 mph 1021.3mb 84f 84f
1:20pm  -   -   -  13 16 mph 1021.1mb 84f 84f
1:10pm  -   -   -  11 16 mph 1021.3mb 84f 84f
1:00pm  -   -   -  13 16 mph 1021.1mb 84f 84f
12:50pm 6ft 8s 6s 11 16 mph 1021mb 84f 84f
12:40pm 6ft 8s  -   -  mph - 84f -
12:30pm  -   -   -  13 16 mph 1020.9mb 84f 84f
12:20pm  -   -   -  13 18 mph 1020.8mb 84f 84f
12:10pm  -   -   -  13 18 mph 1020.5mb 84f 84f
12:00pm  -   -   -  13 18 mph 1020.5mb 84f 84f
11:50am 6ft 9s 6s 16 18 mph 1020.5mb 84f 84f
11:40am  -   -   -  16 20 mph 1020.5mb 84f 84f
11:30am  -   -   -  16 20 mph 1020.5mb 84f 84f
11:20am  -   -   -  16 18 mph 1020.5mb 84f 84f
11:10am  -   -   -  16 18 mph 1020.6mb 84f 84f
11:00am  -   -   -  13 16 mph 1020.5mb 84f 84f
10:50am 6.5ft 9s 6s 13 18 mph 1020.5mb 84f 84f
10:40am  -   -   -  13 16 mph 1020.4mb 84f 84f
10:30am  -   -   -  11 16 mph 1020.3mb 84f 84f
10:20am  -   -   -  13 16 mph 1020mb 84f 84f
10:10am  -   -   -  13 18 mph 1020mb 84f 84f
10:00am  -   -   -  16 18 mph 1020mb 84f 84f
9:50am 6ft 8s 6s 13 16 mph 1020mb 84f 84f
9:40am  -   -   -  13 16 mph 1020.1mb 84f 84f
9:30am  -   -   -  13 18 mph 1020mb 84f 84f
9:20am  -   -   -  13 18 mph 1019.9mb 85f 84f
9:10am  -   -   -  13 18 mph 1019.6mb 85f 84f
9:00am  -   -   -  13 18 mph 1019.5mb 85f 84f
8:50am 6ft  -  6s 16 18 mph 1019.5mb - 84f
8:40am  -   -   -  13 18 mph 1019.5mb 85f 84f
8:30am  -   -   -  16 20 mph 1019.5mb 85f 84f
8:20am  -   -   -  16 20 mph 1019.5mb 85f 84f
8:10am  -   -   -  13 18 mph 1019.9mb 85f 84f
8:00am  -   -   -  13 18 mph 1020mb 85f 84f
7:50am 6ft 9s 6s 13 18 mph 1020mb 85f 84f
7:40am 6ft  -  6s 13 16 mph 1020mb 85f 84f
7:30am  -   -   -  13 16 mph 1020mb 85f 84f
7:20am  -   -   -  13 16 mph 1020mb 85f 84f
7:10am  -   -   -  16 18 mph 1020mb 85f 84f
7:00am  -   -   -  13 18 mph 1020mb 85f 83f
6:50am 5.5ft 9s 6s 13 18 mph 1020mb 85f 84f
6:40am  -   -   -  16 20 mph 1020mb 85f 84f
6:30am  -   -   -  11 18 mph 1020.1mb 85f 82f
6:20am  -   -   -  13 20 mph 1020.5mb 85f 83f
6:10am  -   -   -  16 20 mph 1020.4mb 85f 84f
6:00am  -   -   -  13 18 mph 1020.3mb 85f 84f
5:50am 5.5ft 9s 6s 13 20 mph 1020.3mb 85f 84f
5:40am  -   -   -  13 20 mph 1020.4mb 85f 83f
5:30am  -   -   -  13 18 mph 1020.5mb 85f 83f
5:20am  -   -   -  9 18 mph 1020.5mb 85f 82f
5:10am  -   -   -  11 16 mph 1020.5mb 85f 83f
5:00am  -   -   -  13 20 mph 1020.6mb 85f 83f
4:50am  -   -   -  11 16 mph 1020.8mb 85f 84f
4:40am  -   -   -  11 16 mph 1020.9mb 85f 84f
4:30am  -   -   -   -  mph 1021mb 85f -
4:20am  -   -   -  13 18 mph 1021.3mb 85f 84f
4:10am  -   -   -  13 16 mph 1021.3mb 85f 84f
4:00am  -   -   -  13 16 mph 1021.1mb 85f 84f
3:50am 6ft 9s 6s 11 16 mph 1021.1mb 85f 84f
3:40am  -   -   -  11 13 mph 1021.3mb 85f 83f
3:30am  -   -   -  11 13 mph 1021.4mb 85f 83f
3:20am  -   -   -  13 18 mph 1021mb 85f 83f
3:10am  -   -   -  13 16 mph 1021mb 85f 83f
3:00am  -   -   -  13 18 mph 1021mb 85f 84f
2:50am 5.5ft 8s 6s 16 20 mph 1021.1mb 85f 83f
2:40am 5.5ft  -  6s 18 22 mph 1021mb 85f 83f
2:30am  -   -   -  18 22 mph 1021mb 85f 83f
2:20am  -   -   -  18 20 mph 1021mb 85f 83f
2:10am  -   -   -  18 22 mph 1021mb 85f 83f
2:00am  -   -   -  20 25 mph 1021mb 85f 84f
1:50am 7ft  -  6s 18 22 mph 1021mb - 84f
1:40am  -   -   -  18 22 mph 1020.6mb 85f 84f
1:30am  -   -   -  16 22 mph 1020.5mb 85f 83f
1:20am  -   -   -  16 18 mph 1020.1mb 85f 84f
1:10am  -   -   -  16 20 mph 1020mb 85f 84f
1:00am  -   -   -  16 20 mph 1019.6mb 85f 85f
12:50am 6ft 8s 6s 13 18 mph 1019.6mb 85f 85f
12:40am  -   -   -  13 18 mph 1019.5mb 85f 85f
12:30am  -   -   -  13 18 mph 1019.5mb 85f 85f
12:20am  -   -   -  13 18 mph 1019.4mb 85f 85f
12:10am  -   -   -  16 18 mph 1019.1mb 85f 85f
12:00am  -   -   -  16 20 mph 1019.4mb 85f 85f
Tue 07/19 11:50pm 6ft 8s 6s 16 22 mph 1019.5mb 85f 85f
11:40pm  -   -   -  16 20 mph 1019.5mb 85f 85f
11:30pm  -   -   -  16 20 mph 1019.4mb 85f 85f
11:20pm  -   -   -  16 20 mph 1019.5mb 85f 85f
11:10pm  -   -   -  18 20 mph 1019.8mb 85f 85f
11:00pm  -   -   -  18 22 mph 1019.9mb 85f 85f
10:50pm 6.5ft 9s 6s 18 22 mph 1020mb 85f 85f
10:40pm  -   -   -  16 22 mph 1020.1mb 85f 84f
10:30pm  -   -   -  16 31 mph 1020.5mb 85f 82f
10:20pm  -   -   -  20 27 mph 1020.4mb 85f 84f
10:10pm  -   -   -  16 20 mph 1020.4mb 85f 84f
10:00pm  -   -   -  16 20 mph 1020.5mb 85f 84f
9:50pm 6ft 8s 6s 16 22 mph 1020.5mb 85f 84f